sensor_id;sensor_type;location;lat;lon;timestamp;pressure;altitude;pressure_sealevel;temperature;humidity
45793;BME280;31495;42.740;22.908;2023-04-08T00:00:26;93150.16;;;3.13;72.58
45793;BME280;31495;42.740;22.908;2023-04-08T00:01:25;93109.78;;;2.84;72.60
45793;BME280;31495;42.740;22.908;2023-04-08T00:02:25;93145.81;;;3.14;72.65
45793;BME280;31495;42.740;22.908;2023-04-08T00:03:25;93135.00;;;3.04;72.72
45793;BME280;31495;42.740;22.908;2023-04-08T00:04:25;93132.59;;;3.02;72.64
45793;BME280;31495;42.740;22.908;2023-04-08T00:05:24;93153.50;;;3.14;72.64
45793;BME280;31495;42.740;22.908;2023-04-08T00:06:23;93148.53;;;3.12;72.79
45793;BME280;31495;42.740;22.908;2023-04-08T00:07:25;93150.16;;;3.13;72.86
45793;BME280;31495;42.740;22.908;2023-04-08T00:08:25;93116.47;;;2.93;72.68
45793;BME280;31495;42.740;22.908;2023-04-08T00:09:24;93106.25;;;2.85;72.69
45793;BME280;31495;42.740;22.908;2023-04-08T00:10:24;93136.25;;;3.08;72.88
45793;BME280;31495;42.740;22.908;2023-04-08T00:11:24;93103.91;;;2.84;72.95
45793;BME280;31495;42.740;22.908;2023-04-08T00:12:24;93153.50;;;3.14;73.06
45793;BME280;31495;42.740;22.908;2023-04-08T00:13:23;93158.75;;;3.12;73.16
45793;BME280;31495;42.740;22.908;2023-04-08T00:14:22;93138.03;;;2.99;73.23
45793;BME280;31495;42.740;22.908;2023-04-08T00:15:22;93143.16;;;2.99;73.15
45793;BME280;31495;42.740;22.908;2023-04-08T00:16:21;93147.44;;;3.07;73.10
45793;BME280;31495;42.740;22.908;2023-04-08T00:17:20;93103.53;;;2.87;72.78
45793;BME280;31495;42.740;22.908;2023-04-08T00:18:20;93152.53;;;3.15;72.41
45793;BME280;31495;42.740;22.908;2023-04-08T00:19:19;93137.53;;;3.12;72.54
45793;BME280;31495;42.740;22.908;2023-04-08T00:20:21;93131.94;;;3.08;72.53
45793;BME280;31495;42.740;22.908;2023-04-08T00:21:21;93134.50;;;3.08;72.55
45793;BME280;31495;42.740;22.908;2023-04-08T00:22:22;93148.84;;;3.18;72.61
45793;BME280;31495;42.740;22.908;2023-04-08T00:23:21;93143.13;;;3.07;72.73
45793;BME280;31495;42.740;22.908;2023-04-08T00:24:21;93125.44;;;2.89;73.08
45793;BME280;31495;42.740;22.908;2023-04-08T00:25:20;93126.19;;;2.98;73.03
45793;BME280;31495;42.740;22.908;2023-04-08T00:26:20;93122.88;;;2.89;73.09
45793;BME280;31495;42.740;22.908;2023-04-08T00:27:19;93134.19;;;2.95;73.10
45793;BME280;31495;42.740;22.908;2023-04-08T00:28:19;93115.56;;;2.78;73.19
45793;BME280;31495;42.740;22.908;2023-04-08T00:29:18;93143.78;;;3.01;73.31
45793;BME280;31495;42.740;22.908;2023-04-08T00:30:17;93122.41;;;2.86;73.27
45793;BME280;31495;42.740;22.908;2023-04-08T00:31:17;93139.97;;;2.97;73.38
45793;BME280;31495;42.740;22.908;2023-04-08T00:32:17;93145.06;;;2.97;73.46
45793;BME280;31495;42.740;22.908;2023-04-08T00:33:16;93143.47;;;2.96;73.33
45793;BME280;31495;42.740;22.908;2023-04-08T00:34:15;93132.63;;;2.86;73.49
45793;BME280;31495;42.740;22.908;2023-04-08T00:35:15;93122.25;;;2.79;73.62
45793;BME280;31495;42.740;22.908;2023-04-08T00:36:15;93093.88;;;2.66;73.37
45793;BME280;31495;42.740;22.908;2023-04-08T00:37:14;93145.06;;;2.97;73.39
45793;BME280;31495;42.740;22.908;2023-04-08T00:38:13;93121.13;;;2.82;73.31
45793;BME280;31495;42.740;22.908;2023-04-08T00:39:13;93147.47;;;2.99;73.26
45793;BME280;31495;42.740;22.908;2023-04-08T00:40:13;93119.72;;;2.79;73.50
45793;BME280;31495;42.740;22.908;2023-04-08T00:41:13;93094.03;;;2.56;73.72
45793;BME280;31495;42.740;22.908;2023-04-08T00:42:12;93122.91;;;2.73;73.82
45793;BME280;31495;42.740;22.908;2023-04-08T00:43:12;93135.19;;;2.86;73.99
45793;BME280;31495;42.740;22.908;2023-04-08T00:44:11;93148.59;;;2.88;73.92
45793;BME280;31495;42.740;22.908;2023-04-08T00:45:11;93124.50;;;2.74;73.92
45793;BME280;31495;42.740;22.908;2023-04-08T00:46:11;93135.19;;;2.86;73.52
45793;BME280;31495;42.740;22.908;2023-04-08T00:47:12;93123.03;;;2.88;73.39
45793;BME280;31495;42.740;22.908;2023-04-08T00:48:11;93139.13;;;2.97;73.19
45793;BME280;31495;42.740;22.908;2023-04-08T00:49:11;93143.16;;;2.99;73.17
45793;BME280;31495;42.740;22.908;2023-04-08T00:50:10;93140.59;;;2.99;73.29
45793;BME280;31495;42.740;22.908;2023-04-08T00:51:10;93094.34;;;2.69;73.07
45793;BME280;31495;42.740;22.908;2023-04-08T00:52:10;93127.06;;;2.82;73.53
45793;BME280;31495;42.740;22.908;2023-04-08T00:53:10;93139.16;;;2.88;73.65
45793;BME280;31495;42.740;22.908;2023-04-08T00:54:09;93116.34;;;2.70;73.84
45793;BME280;31495;42.740;22.908;2023-04-08T00:55:09;93134.88;;;2.89;73.95
45793;BME280;31495;42.740;22.908;2023-04-08T00:56:08;93139.00;;;2.90;73.94
45793;BME280;31495;42.740;22.908;2023-04-08T00:57:08;93135.03;;;2.87;73.98
45793;BME280;31495;42.740;22.908;2023-04-08T00:58:08;93134.53;;;2.92;73.73
45793;BME280;31495;42.740;22.908;2023-04-08T00:59:07;93134.19;;;2.95;73.50
45793;BME280;31495;42.740;22.908;2023-04-08T01:00:07;93138.97;;;2.98;73.07
45793;BME280;31495;42.740;22.908;2023-04-08T01:01:37;93138.84;;;2.91;73.34
45793;BME280;31495;42.740;22.908;2023-04-08T01:02:49;93144.78;;;2.84;73.64
45793;BME280;31495;42.740;22.908;2023-04-08T01:04:04;93124.19;;;2.69;74.02
45793;BME280;31495;42.740;22.908;2023-04-08T01:05:08;93090.84;;;2.46;73.88
45793;BME280;31495;42.740;22.908;2023-04-08T01:07:41;93135.06;;;2.71;74.47
45793;BME280;31495;42.740;22.908;2023-04-08T01:08:43;93144.13;;;2.82;74.37
45793;BME280;31495;42.740;22.908;2023-04-08T01:09:47;93113.81;;;2.62;74.17
45793;BME280;31495;42.740;22.908;2023-04-08T01:10:50;93142.25;;;2.75;74.29
45793;BME280;31495;42.740;22.908;2023-04-08T01:11:51;93123.06;;;2.63;74.16
45793;BME280;31495;42.740;22.908;2023-04-08T01:12:57;93151.47;;;2.76;74.07
45793;BME280;31495;42.740;22.908;2023-04-08T01:13:58;93138.06;;;2.74;73.96
45793;BME280;31495;42.740;22.908;2023-04-08T01:15:03;93144.28;;;2.80;73.91
45793;BME280;31495;42.740;22.908;2023-04-08T01:16:04;93129.13;;;2.70;73.65
45793;BME280;31495;42.740;22.908;2023-04-08T01:17:04;93130.56;;;2.73;73.63
45793;BME280;31495;42.740;22.908;2023-04-08T01:18:06;93144.28;;;2.80;73.67
45793;BME280;31495;42.740;22.908;2023-04-08T01:19:07;93159.59;;;2.88;73.63
45793;BME280;31495;42.740;22.908;2023-04-08T01:20:09;93155.94;;;2.83;73.68
45793;BME280;31495;42.740;22.908;2023-04-08T01:21:10;93131.84;;;2.69;73.49
45793;BME280;31495;42.740;22.908;2023-04-08T01:22:28;93158.66;;;2.89;73.26
45793;BME280;31495;42.740;22.908;2023-04-08T01:24:38;93161.38;;;2.88;73.57
45793;BME280;31495;42.740;22.908;2023-04-08T01:25:46;93154.81;;;2.77;73.73
45793;BME280;31495;42.740;22.908;2023-04-08T01:26:46;93138.41;;;2.71;73.69
45793;BME280;31495;42.740;22.908;2023-04-08T01:27:47;93150.06;;;2.82;73.89
45793;BME280;31495;42.740;22.908;2023-04-08T01:28:49;93119.25;;;2.59;73.58
45793;BME280;31495;42.740;22.908;2023-04-08T01:29:51;93118.94;;;2.54;74.05
45793;BME280;31495;42.740;22.908;2023-04-08T01:30:51;93150.53;;;2.78;73.95
45793;BME280;31495;42.740;22.908;2023-04-08T01:31:52;93155.66;;;2.78;73.98
45793;BME280;31495;42.740;22.908;2023-04-08T01:32:54;93162.00;;;2.82;73.92
45793;BME280;31495;42.740;22.908;2023-04-08T01:33:55;93161.22;;;2.81;74.02
45793;BME280;31495;42.740;22.908;2023-04-08T01:34:56;93147.66;;;2.72;73.91
45793;BME280;31495;42.740;22.908;2023-04-08T01:35:57;93128.34;;;2.62;73.85
45793;BME280;31495;42.740;22.908;2023-04-08T01:37:00;93169.06;;;2.80;73.77
45793;BME280;31495;42.740;22.908;2023-04-08T01:38:01;93167.44;;;2.79;73.97
45793;BME280;31495;42.740;22.908;2023-04-08T01:39:02;93142.88;;;2.53;73.98
45793;BME280;31495;42.740;22.908;2023-04-08T01:40:05;93165.25;;;2.67;74.05
45793;BME280;31495;42.740;22.908;2023-04-08T01:41:07;93135.72;;;2.48;74.37
45793;BME280;31495;42.740;22.908;2023-04-08T01:42:09;93167.78;;;2.75;73.86
45793;BME280;31495;42.740;22.908;2023-04-08T01:43:10;93139.03;;;2.65;73.50
45793;BME280;31495;42.740;22.908;2023-04-08T01:44:12;93158.50;;;2.83;73.27
45793;BME280;31495;42.740;22.908;2023-04-08T01:45:13;93154.84;;;2.69;73.40
45793;BME280;31495;42.740;22.908;2023-04-08T01:46:14;93150.88;;;2.66;73.57
45793;BME280;31495;42.740;22.908;2023-04-08T01:47:14;93157.88;;;2.72;73.53
45793;BME280;31495;42.740;22.908;2023-04-08T01:48:14;93167.78;;;2.75;73.64
45793;BME280;31495;42.740;22.908;2023-04-08T01:49:15;93159.63;;;2.72;73.53
45793;BME280;31495;42.740;22.908;2023-04-08T01:50:16;93135.69;;;2.56;73.58
45793;BME280;31495;42.740;22.908;2023-04-08T01:51:15;93161.53;;;2.78;73.61
45793;BME280;31495;42.740;22.908;2023-04-08T01:52:17;93165.69;;;2.79;73.43
45793;BME280;31495;42.740;22.908;2023-04-08T01:53:18;93139.69;;;2.67;73.25
45793;BME280;31495;42.740;22.908;2023-04-08T01:54:17;93173.34;;;2.87;73.13
45793;BME280;31495;42.740;22.908;2023-04-08T01:55:17;93176.72;;;2.88;73.21
45793;BME280;31495;42.740;22.908;2023-04-08T01:56:16;93172.88;;;2.84;73.64
45793;BME280;31495;42.740;22.908;2023-04-08T01:57:25;93147.53;;;2.66;73.38
45793;BME280;31495;42.740;22.908;2023-04-08T01:58:28;93179.75;;;2.83;73.53
45793;BME280;31495;42.740;22.908;2023-04-08T01:59:30;93179.91;;;2.82;73.73
45793;BME280;31495;42.740;22.908;2023-04-08T02:00:33;93165.88;;;2.69;73.62
45793;BME280;31495;42.740;22.908;2023-04-08T02:01:34;93173.84;;;2.74;74.00
45793;BME280;31495;42.740;22.908;2023-04-08T02:02:35;93178.16;;;2.74;74.06
45793;BME280;31495;42.740;22.908;2023-04-08T02:03:35;93173.53;;;2.69;73.99
45793;BME280;31495;42.740;22.908;2023-04-08T02:04:35;93160.94;;;2.60;74.00
45793;BME280;31495;42.740;22.908;2023-04-08T02:05:35;93190.94;;;2.82;73.77
45793;BME280;31495;42.740;22.908;2023-04-08T02:06:35;93173.84;;;2.66;73.80
45793;BME280;31495;42.740;22.908;2023-04-08T02:07:36;93200.19;;;2.83;73.73
45793;BME280;31495;42.740;22.908;2023-04-08T02:08:35;93160.44;;;2.64;73.42
45793;BME280;31495;42.740;22.908;2023-04-08T02:09:35;93173.06;;;2.74;72.95
45793;BME280;31495;42.740;22.908;2023-04-08T02:10:34;93168.59;;;2.68;72.93
45793;BME280;31495;42.740;22.908;2023-04-08T02:11:34;93201.31;;;2.89;73.02
45793;BME280;31495;42.740;22.908;2023-04-08T02:12:33;93203.38;;;2.85;73.08
45793;BME280;31495;42.740;22.908;2023-04-08T02:13:33;93155.66;;;2.61;73.16
45793;BME280;31495;42.740;22.908;2023-04-08T02:14:33;93191.25;;;2.79;73.22
45793;BME280;31495;42.740;22.908;2023-04-08T02:15:35;93181.50;;;2.74;73.36
45793;BME280;31495;42.740;22.908;2023-04-08T02:16:45;93192.19;;;2.78;73.32
45793;BME280;31495;42.740;22.908;2023-04-08T02:17:54;93198.09;;;2.79;73.18
45793;BME280;31495;42.740;22.908;2023-04-08T02:18:57;93196.22;;;2.81;73.47
45793;BME280;31495;42.740;22.908;2023-04-08T02:20:06;93162.03;;;2.65;73.16
45793;BME280;31495;42.740;22.908;2023-04-08T02:21:12;93194.59;;;2.88;72.89
45793;BME280;31495;42.740;22.908;2023-04-08T02:23:49;93192.19;;;2.94;72.29
45793;BME280;31495;42.740;22.908;2023-04-08T02:24:49;93191.09;;;2.89;72.37
45793;BME280;31495;42.740;22.908;2023-04-08T02:25:52;93183.59;;;2.79;72.88
45793;BME280;31495;42.740;22.908;2023-04-08T02:26:54;93191.72;;;2.83;73.10
45793;BME280;31495;42.740;22.908;2023-04-08T02:27:55;93193.50;;;2.82;73.22
45793;BME280;31495;42.740;22.908;2023-04-08T02:28:55;93163.31;;;2.61;73.09
45793;BME280;31495;42.740;22.908;2023-04-08T02:29:56;93142.22;;;2.51;73.06
45793;BME280;31495;42.740;22.908;2023-04-08T02:30:58;93190.13;;;2.82;73.20
45793;BME280;31495;42.740;22.908;2023-04-08T02:32:00;93191.72;;;2.83;73.10
45793;BME280;31495;42.740;22.908;2023-04-08T02:33:04;93151.19;;;2.55;73.10
45793;BME280;31495;42.740;22.908;2023-04-08T02:34:07;93192.50;;;2.83;73.15
45793;BME280;31495;42.740;22.908;2023-04-08T02:35:08;93163.00;;;2.64;73.19
45793;BME280;31495;42.740;22.908;2023-04-08T02:36:10;93181.19;;;2.78;73.23
45793;BME280;31495;42.740;22.908;2023-04-08T02:37:10;93187.25;;;2.85;73.26
45793;BME280;31495;42.740;22.908;2023-04-08T02:38:10;93189.16;;;2.83;73.39
45793;BME280;31495;42.740;22.908;2023-04-08T02:39:10;93168.91;;;2.73;73.48
45793;BME280;31495;42.740;22.908;2023-04-08T02:40:27;93182.28;;;2.83;73.51
45793;BME280;31495;42.740;22.908;2023-04-08T02:41:30;93155.34;;;2.64;73.42
45793;BME280;31495;42.740;22.908;2023-04-08T02:42:29;93173.22;;;2.81;73.03
45793;BME280;31495;42.740;22.908;2023-04-08T02:43:28;93188.53;;;2.89;73.02
45793;BME280;31495;42.740;22.908;2023-04-08T02:44:30;93164.44;;;2.67;73.14
45793;BME280;31495;42.740;22.908;2023-04-08T02:45:31;93134.56;;;2.43;73.46
45793;BME280;31495;42.740;22.908;2023-04-08T02:46:31;93159.16;;;2.60;73.62
45793;BME280;31495;42.740;22.908;2023-04-08T02:47:31;93143.53;;;2.55;73.74
45793;BME280;31495;42.740;22.908;2023-04-08T02:48:31;93157.38;;;2.69;73.38
45793;BME280;31495;42.740;22.908;2023-04-08T02:49:30;93175.78;;;2.72;73.61
45793;BME280;31495;42.740;22.908;2023-04-08T02:50:30;93160.44;;;2.64;73.55
45793;BME280;31495;42.740;22.908;2023-04-08T02:51:29;93182.44;;;2.82;73.68
45793;BME280;31495;42.740;22.908;2023-04-08T02:52:28;93183.59;;;2.79;73.69
45793;BME280;31495;42.740;22.908;2023-04-08T02:53:28;93180.38;;;2.77;73.70
45793;BME280;31495;42.740;22.908;2023-04-08T02:54:28;93169.06;;;2.63;73.81
45793;BME280;31495;42.740;22.908;2023-04-08T02:55:27;93135.22;;;2.45;73.99
45793;BME280;31495;42.740;22.908;2023-04-08T02:56:27;93148.94;;;2.52;73.96
45793;BME280;31495;42.740;22.908;2023-04-08T02:57:27;93153.91;;;2.62;74.27
45793;BME280;31495;42.740;22.908;2023-04-08T02:58:26;93143.53;;;2.55;74.04
45793;BME280;31495;42.740;22.908;2023-04-08T02:59:25;93142.88;;;2.53;73.80
45793;BME280;31495;42.740;22.908;2023-04-08T03:00:25;93134.41;;;2.52;73.56
45793;BME280;31495;42.740;22.908;2023-04-08T03:01:25;93169.38;;;2.76;73.50
45793;BME280;31495;42.740;22.908;2023-04-08T03:02:24;93175.94;;;2.79;73.59
45793;BME280;31495;42.740;22.908;2023-04-08T03:03:24;93153.25;;;2.68;73.39
45793;BME280;31495;42.740;22.908;2023-04-08T03:04:27;93157.56;;;2.67;73.68
45793;BME280;31495;42.740;22.908;2023-04-08T03:05:26;93158.53;;;2.66;73.79
45793;BME280;31495;42.740;22.908;2023-04-08T03:06:26;93163.63;;;2.66;73.85
45793;BME280;31495;42.740;22.908;2023-04-08T03:07:26;93149.09;;;2.58;73.90
45793;BME280;31495;42.740;22.908;2023-04-08T03:08:25;93165.56;;;2.72;73.88
45793;BME280;31495;42.740;22.908;2023-04-08T03:09:24;93169.69;;;2.82;73.49
45793;BME280;31495;42.740;22.908;2023-04-08T03:10:24;93139.03;;;2.57;73.49
45793;BME280;31495;42.740;22.908;2023-04-08T03:11:24;93172.72;;;2.77;73.87
45793;BME280;31495;42.740;22.908;2023-04-08T03:12:24;93178.00;;;2.75;73.97
45793;BME280;31495;42.740;22.908;2023-04-08T03:13:26;93177.03;;;2.76;74.04
45793;BME280;31495;42.740;22.908;2023-04-08T03:14:25;93136.19;;;2.52;73.95
45793;BME280;31495;42.740;22.908;2023-04-08T03:15:24;93137.94;;;2.51;73.93
45793;BME280;31495;42.740;22.908;2023-04-08T03:16:24;93161.88;;;2.67;73.97
45793;BME280;31495;42.740;22.908;2023-04-08T03:17:24;93151.34;;;2.62;73.99
45793;BME280;31495;42.740;22.908;2023-04-08T03:18:23;93167.78;;;2.67;73.97
45793;BME280;31495;42.740;22.908;2023-04-08T03:19:22;93173.69;;;2.76;73.99
45793;BME280;31495;42.740;22.908;2023-04-08T03:20:22;93146.22;;;2.62;73.69
45793;BME280;31495;42.740;22.908;2023-04-08T03:21:22;93169.22;;;2.78;73.72
45793;BME280;31495;42.740;22.908;2023-04-08T03:22:21;93166.97;;;2.75;73.81
45793;BME280;31495;42.740;22.908;2023-04-08T03:23:22;93167.44;;;2.79;73.68
45793;BME280;31495;42.740;22.908;2023-04-08T03:24:21;93165.88;;;2.69;73.69
45793;BME280;31495;42.740;22.908;2023-04-08T03:25:21;93133.94;;;2.49;73.67
45793;BME280;31495;42.740;22.908;2023-04-08T03:26:20;93179.59;;;2.76;73.70
45793;BME280;31495;42.740;22.908;2023-04-08T03:27:20;93156.75;;;2.58;73.78
45793;BME280;31495;42.740;22.908;2023-04-08T03:28:19;93162.19;;;2.64;74.06
45793;BME280;31495;42.740;22.908;2023-04-08T03:29:18;93110.97;;;2.32;73.98
45793;BME280;31495;42.740;22.908;2023-04-08T03:30:18;93165.56;;;2.72;73.88
45793;BME280;31495;42.740;22.908;2023-04-08T03:31:17;93155.66;;;2.61;74.17
45793;BME280;31495;42.740;22.908;2023-04-08T03:32:19;93168.91;;;2.73;74.35
45793;BME280;31495;42.740;22.908;2023-04-08T03:33:18;93148.16;;;2.60;74.37
45793;BME280;31495;42.740;22.908;2023-04-08T03:34:18;93152.13;;;2.62;74.24
45793;BME280;31495;42.740;22.908;2023-04-08T03:35:17;93176.09;;;2.78;74.33
45793;BME280;31495;42.740;22.908;2023-04-08T03:36:17;93158.22;;;2.69;74.33
45793;BME280;31495;42.740;22.908;2023-04-08T03:37:17;93170.97;;;2.78;74.23
45793;BME280;31495;42.740;22.908;2023-04-08T03:38:16;93169.84;;;2.80;74.17
45793;BME280;31495;42.740;22.908;2023-04-08T03:39:16;93132.50;;;2.54;73.89
45793;BME280;31495;42.740;22.908;2023-04-08T03:40:15;93161.41;;;2.71;73.98
45793;BME280;31495;42.740;22.908;2023-04-08T03:41:15;93163.63;;;2.74;74.28
45793;BME280;31495;42.740;22.908;2023-04-08T03:42:14;93134.09;;;2.47;74.31
45793;BME280;31495;42.740;22.908;2023-04-08T03:43:14;93138.25;;;2.48;74.15
45793;BME280;31495;42.740;22.908;2023-04-08T03:44:13;93178.63;;;2.78;74.47
45793;BME280;31495;42.740;22.908;2023-04-08T03:45:13;93159.16;;;2.60;74.52
45793;BME280;31495;42.740;22.908;2023-04-08T03:46:12;93153.41;;;2.58;74.48
45793;BME280;31495;42.740;22.908;2023-04-08T03:47:12;93152.13;;;2.62;74.60
45793;BME280;31495;42.740;22.908;2023-04-08T03:48:11;93166.34;;;2.73;74.55
45793;BME280;31495;42.740;22.908;2023-04-08T03:49:11;93169.69;;;2.73;74.43
45793;BME280;31495;42.740;22.908;2023-04-08T03:50:10;93155.34;;;2.64;74.48
45793;BME280;31495;42.740;22.908;2023-04-08T03:51:10;93171.75;;;2.78;74.60
45793;BME280;31495;42.740;22.908;2023-04-08T03:52:09;93159.47;;;2.73;74.53
45793;BME280;31495;42.740;22.908;2023-04-08T03:53:09;93158.38;;;2.68;74.48
45793;BME280;31495;42.740;22.908;2023-04-08T03:54:12;93106.34;;;2.36;74.68
45793;BME280;31495;42.740;22.908;2023-04-08T03:55:11;93142.56;;;2.56;74.78
45793;BME280;31495;42.740;22.908;2023-04-08T03:56:11;93174.47;;;2.76;74.92
45793;BME280;31495;42.740;22.908;2023-04-08T03:57:10;93169.69;;;2.73;74.89
45793;BME280;31495;42.740;22.908;2023-04-08T03:58:10;93176.56;;;2.81;74.66
45793;BME280;31495;42.740;22.908;2023-04-08T03:59:09;93178.47;;;2.79;74.62
45793;BME280;31495;42.740;22.908;2023-04-08T04:00:09;93152.63;;;2.66;74.60
45793;BME280;31495;42.740;22.908;2023-04-08T04:01:09;93178.31;;;2.72;74.50
45793;BME280;31495;42.740;22.908;2023-04-08T04:02:08;93183.59;;;2.71;74.64
45793;BME280;31495;42.740;22.908;2023-04-08T04:03:07;93159.63;;;2.55;74.56
45793;BME280;31495;42.740;22.908;2023-04-08T04:04:08;93173.22;;;2.64;74.58
45793;BME280;31495;42.740;22.908;2023-04-08T04:05:08;93184.53;;;2.70;74.54
45793;BME280;31495;42.740;22.908;2023-04-08T04:06:08;93157.41;;;2.52;74.59
45793;BME280;31495;42.740;22.908;2023-04-08T04:07:08;93167.78;;;2.59;74.79
45793;BME280;31495;42.740;22.908;2023-04-08T04:08:08;93163.00;;;2.56;74.63
45793;BME280;31495;42.740;22.908;2023-04-08T04:09:07;93185.00;;;2.73;74.65
45793;BME280;31495;42.740;22.908;2023-04-08T04:10:07;93179.44;;;2.78;74.35
45793;BME280;31495;42.740;22.908;2023-04-08T04:11:06;93175.94;;;2.79;73.82
45793;BME280;31495;42.740;22.908;2023-04-08T04:12:06;93160.44;;;2.72;73.62
45793;BME280;31495;42.740;22.908;2023-04-08T04:13:05;93155.19;;;2.66;73.72
45793;BME280;31495;42.740;22.908;2023-04-08T04:14:05;93161.56;;;2.70;73.57
45793;BME280;31495;42.740;22.908;2023-04-08T04:15:05;93136.81;;;2.54;73.47
45793;BME280;31495;42.740;22.908;2023-04-08T04:16:05;93159.63;;;2.72;73.14
45793;BME280;31495;42.740;22.908;2023-04-08T04:17:04;93187.41;;;2.83;73.19
45793;BME280;31495;42.740;22.908;2023-04-08T04:18:04;93155.50;;;2.63;73.27
45793;BME280;31495;42.740;22.908;2023-04-08T04:19:04;93189.81;;;2.76;73.50
45793;BME280;31495;42.740;22.908;2023-04-08T04:20:04;93148.00;;;2.53;73.64
45793;BME280;31495;42.740;22.908;2023-04-08T04:21:05;93185.31;;;2.79;73.77
45793;BME280;31495;42.740;22.908;2023-04-08T04:22:05;93162.84;;;2.66;73.89
45793;BME280;31495;42.740;22.908;2023-04-08T04:23:05;93185.81;;;2.82;74.07
45793;BME280;31495;42.740;22.908;2023-04-08T04:24:04;93134.91;;;2.48;74.05
45793;BME280;31495;42.740;22.908;2023-04-08T04:25:04;93154.38;;;2.57;74.13
45793;BME280;31495;42.740;22.908;2023-04-08T04:26:08;93166.03;;;2.68;74.22
45793;BME280;31495;42.740;22.908;2023-04-08T04:27:08;93175.75;;;2.81;74.00
45793;BME280;31495;42.740;22.908;2023-04-08T04:28:07;93152.13;;;2.70;74.11
45793;BME280;31495;42.740;22.908;2023-04-08T04:29:08;93180.38;;;2.85;74.08
45793;BME280;31495;42.740;22.908;2023-04-08T04:30:07;93189.63;;;2.94;74.00
45793;BME280;31495;42.740;22.908;2023-04-08T04:31:20;93191.88;;;2.98;73.54
45793;BME280;31495;42.740;22.908;2023-04-08T04:32:24;93188.53;;;2.97;73.27
45793;BME280;31495;42.740;22.908;2023-04-08T04:33:24;93194.72;;;3.03;73.22
45793;BME280;31495;42.740;22.908;2023-04-08T04:34:23;93195.53;;;3.03;73.12
45793;BME280;31495;42.740;22.908;2023-04-08T04:35:23;93193.63;;;3.05;72.77
45793;BME280;31495;42.740;22.908;2023-04-08T04:36:22;93178.16;;;2.90;72.83
45793;BME280;31495;42.740;22.908;2023-04-08T04:37:22;93193.63;;;2.97;72.87
45793;BME280;31495;42.740;22.908;2023-04-08T04:38:22;93180.03;;;2.88;73.17
45793;BME280;31495;42.740;22.908;2023-04-08T04:39:21;93157.06;;;2.72;73.55
45793;BME280;31495;42.740;22.908;2023-04-08T04:40:21;93158.69;;;2.73;73.71
45793;BME280;31495;42.740;22.908;2023-04-08T04:41:20;93184.19;;;2.98;73.79
45793;BME280;31495;42.740;22.908;2023-04-08T04:42:20;93201.91;;;3.07;73.70
45793;BME280;31495;42.740;22.908;2023-04-08T04:43:20;93180.03;;;2.97;73.76
45793;BME280;31495;42.740;22.908;2023-04-08T04:44:19;93197.44;;;3.01;74.24
45793;BME280;31495;42.740;22.908;2023-04-08T04:45:18;93190.25;;;2.97;74.35
45793;BME280;31495;42.740;22.908;2023-04-08T04:46:18;93147.16;;;2.69;74.20
45793;BME280;31495;42.740;22.908;2023-04-08T04:47:17;93183.72;;;2.94;74.00
45793;BME280;31495;42.740;22.908;2023-04-08T04:48:17;93150.84;;;2.83;73.58
45793;BME280;31495;42.740;22.908;2023-04-08T04:49:16;93204.13;;;3.19;73.82
45793;BME280;31495;42.740;22.908;2023-04-08T04:50:16;93199.81;;;3.19;73.92
45793;BME280;31495;42.740;22.908;2023-04-08T04:51:15;93191.84;;;3.14;73.75
45793;BME280;31495;42.740;22.908;2023-04-08T04:52:15;93196.16;;;3.22;73.86
45793;BME280;31495;42.740;22.908;2023-04-08T04:53:15;93200.59;;;3.20;73.72
45793;BME280;31495;42.740;22.908;2023-04-08T04:54:14;93156.41;;;2.94;73.90
45793;BME280;31495;42.740;22.908;2023-04-08T04:55:14;93182.72;;;3.11;73.86
45793;BME280;31495;42.740;22.908;2023-04-08T04:56:14;93200.59;;;3.28;73.69
45793;BME280;31495;42.740;22.908;2023-04-08T04:57:13;93134.88;;;2.89;73.59
45793;BME280;31495;42.740;22.908;2023-04-08T04:58:13;93190.56;;;3.26;73.56
45793;BME280;31495;42.740;22.908;2023-04-08T04:59:13;93199.78;;;3.36;73.31
45793;BME280;31495;42.740;22.908;2023-04-08T05:00:13;93200.25;;;3.39;73.32
45793;BME280;31495;42.740;22.908;2023-04-08T05:01:13;93193.38;;;3.40;73.03
45793;BME280;31495;42.740;22.908;2023-04-08T05:02:12;93191.78;;;3.39;73.11
45793;BME280;31495;42.740;22.908;2023-04-08T05:03:12;93130.03;;;3.02;72.66
45793;BME280;31495;42.740;22.908;2023-04-08T05:04:11;93170.38;;;3.31;73.22
45793;BME280;31495;42.740;22.908;2023-04-08T05:05:11;93169.91;;;3.36;72.56
45793;BME280;31495;42.740;22.908;2023-04-08T05:06:10;93162.84;;;3.38;72.43
45793;BME280;31495;42.740;22.908;2023-04-08T05:07:10;93196.84;;;3.55;72.36
45793;BME280;31495;42.740;22.908;2023-04-08T05:08:09;93184.22;;;3.54;72.68
45793;BME280;31495;42.740;22.908;2023-04-08T05:09:08;93200.16;;;3.64;72.28
45793;BME280;31495;42.740;22.908;2023-04-08T05:10:08;93181.03;;;3.52;72.43
45793;BME280;31495;42.740;22.908;2023-04-08T05:11:09;93179.09;;;3.54;72.32
45793;BME280;31495;42.740;22.908;2023-04-08T05:12:09;93197.75;;;3.71;72.28
45793;BME280;31495;42.740;22.908;2023-04-08T05:13:09;93194.38;;;3.70;72.08
45793;BME280;31495;42.740;22.908;2023-04-08T05:14:08;93132.03;;;3.31;72.14
45793;BME280;31495;42.740;22.908;2023-04-08T05:15:09;93181.00;;;3.60;72.33
45793;BME280;31495;42.740;22.908;2023-04-08T05:16:08;93189.31;;;3.62;72.38
45793;BME280;31495;42.740;22.908;2023-04-08T05:17:08;93153.25;;;3.40;72.37
45793;BME280;31495;42.740;22.908;2023-04-08T05:18:07;93198.72;;;3.70;72.35
45793;BME280;31495;42.740;22.908;2023-04-08T05:19:07;93195.81;;;3.73;71.71
45793;BME280;31495;42.740;22.908;2023-04-08T05:20:07;93204.44;;;3.80;71.81
45793;BME280;31495;42.740;22.908;2023-04-08T05:21:07;93208.44;;;3.82;71.60
45793;BME280;31495;42.740;22.908;2023-04-08T05:22:06;93192.13;;;3.75;71.44
45793;BME280;31495;42.740;22.908;2023-04-08T05:23:06;93208.38;;;3.91;71.23
45793;BME280;31495;42.740;22.908;2023-04-08T05:24:06;93200.59;;;3.84;71.10
45793;BME280;31495;42.740;22.908;2023-04-08T05:25:06;93193.09;;;3.74;71.16